ADDS METAR Data INFO
IDs: Format: Raw Decoded Include TAF

Data at: 1130 UTC 17 Jul 2018

KJFK 171051Z 19009KT 10SM FEW080 FEW260 24/23 A2989 RMK AO2 SLP121 T02390233
KJFK 170951Z 19009KT 10SM FEW080 SCT260 23/23 A2989 RMK AO2 SLP122 T02330233
KJFK 170851Z 18008KT 10SM SCT260 23/23 A2989 RMK AO2 SLP122 T02330233 58009
KJFK 170751Z 18008KT 10SM SCT260 23/23 A2990 RMK AO2 SLP124 T02330233
KJFK 170651Z 19008KT 10SM SCT080 BKN260 24/23 A2992 RMK AO2 SLP130 T02390233
KJFK 170551Z 20011KT 10SM BKN250 24/23 A2992 RMK AO2 SLP131 T02440233 10256 20239 58002
KJFK 170451Z 21008KT 10SM SCT250 24/23 A2992 RMK AO2 SLP132 T02440233 403060228
KJFK 170351Z 20011KT 10SM FEW065 SCT250 24/23 A2993 RMK AO2 SLP134 T02440233
KJFK 170251Z 19009KT 10SM SCT065 SCT250 24/23 A2992 RMK AO2 SLP132 T02440233 50005
KJFK 170151Z 19012KT 10SM SCT060 SCT250 24/23 A2993 RMK AO2 SLP134 T02440233
KJFK 170051Z 18010KT 10SM FEW050 SCT250 25/23 A2991 RMK AO2 SLP127 TCU DSNT W T02500233
KJFK 162351Z 17015KT 10SM FEW050 FEW100 BKN250 26/23 A2991 RMK AO2 SLP128 TCU DSNT W T02560233 10300 20256 56011
KJFK 162251Z 17016KT 10SM FEW050 FEW100 BKN250 26/23 A2992 RMK AO2 SLP130 CB DSNT N TCU DSNT SW T02610228
KJFK 162151Z 18016KT 10SM FEW050 SCT250 27/23 A2992 RMK AO2 PK WND 17026/2128 SLP132 CB DSNT S AND DSNT NW TCU DSNT W T02670228
KJFK 162051Z 18016KT 10SM FEW050 SCT260 29/23 A2994 RMK AO2 SLP138 TCU DSNT S-W AND DSNT NW T02890233 56010
KJFK 161951Z 18013KT 10SM FEW045 SCT260 29/24 A2995 RMK AO2 SLP141 TCU DSNT W-N T02940239
KJFK 161851Z 17013KT 10SM FEW045 FEW100 SCT260 29/23 A2996 RMK AO2 SLP145 TCU DSNT W-NW T02940233
KJFK 161751Z 17012KT 10SM FEW050 SCT300 29/24 A2997 RMK AO2 SLP149 TCU DSNT W-DSNT NE T02940244 10306 20244 56007
KJFK 161651Z 18012KT 10SM FEW045 SCT300 30/24 A2998 RMK AO2 SLP151 TCU DSNT W T03000239
KJFK 161551Z 19009KT 10SM FEW045 SCT300 30/24 A2998 RMK AO2 SLP153 T03000239
KJFK 161451Z 21005KT 10SM FEW040 FEW300 29/23 A2999 RMK AO2 SLP156 T02890233 50001
KJFK 161351Z 23006KT 9SM FEW330 28/23 A3000 RMK AO2 SLP158 T02780233
KJFK 161251Z 24006KT 8SM FEW120 FEW330 26/23 A2999 RMK AO2 SLP157 T02560233 $
KJFK 161151Z 24007KT 7SM FEW120 24/23 A2999 RMK AO2 SLP155 70001 T02440233 10244 20228 51008 $
KJFK 161051Z 23008KT 7SM FEW110 FEW330 23/23 A2999 RMK AO2 SLP155 T02330233 $
KJFK 160951Z 23006KT 7SM FEW250 23/23 A2998 RMK AO2 SLP152 T02280228 $
KJFK 160851Z 21003KT 7SM FEW250 23/23 A2997 RMK AO2 SLP147 T02280228 58004 $
KJFK 160751Z 24007KT 10SM FEW250 23/23 A2998 RMK AO2 SLP150 T02330233 $
KJFK 160651Z 24005KT 10SM FEW250 23/23 A2998 RMK AO2 SLP152 T02280228 $
KJFK 160551Z 24006KT 10SM FEW250 23/23 A2998 RMK AO2 SLP151 T02330228 10233 20228 58003 $
KJFK 160451Z 20005KT 10SM FEW250 23/23 A2999 RMK AO2 SLP154 T02280228 402780206 $
KJFK 160351Z 19006KT 10SM FEW250 23/23 A2999 RMK AO2 SLP154 T02280228 $
KJFK 160251Z 20007KT 10SM FEW250 23/23 A2999 RMK AO2 SLP154 T02280228 51009 $
KJFK 160151Z 19007KT 10SM FEW250 23/22 A2999 RMK AO2 SLP154 T02330222 $
KJFK 160051Z 19009KT 10SM FEW150 FEW250 23/22 A2997 RMK AO2 SLP149 T02280222 $
KJFK 152351Z 19011KT 10SM SCT150 SCT250 23/22 A2996 RMK AO2 SLP146 T02330217 10278 20233 53000 $